sensor_id;sensor_type;location;lat;lon;timestamp;P1;durP1;ratioP1;P2;durP2;ratioP2
4837;SDS011;2433;48.768;9.154;2022-10-31T00:01:54;5.13;;;3.30;;
4837;SDS011;2433;48.768;9.154;2022-10-31T00:04:19;6.00;;;3.47;;
4837;SDS011;2433;48.768;9.154;2022-10-31T00:06:45;6.97;;;3.70;;
4837;SDS011;2433;48.768;9.154;2022-10-31T00:09:10;7.50;;;5.00;;
4837;SDS011;2433;48.768;9.154;2022-10-31T00:11:36;4.47;;;3.20;;
4837;SDS011;2433;48.768;9.154;2022-10-31T00:14:02;5.60;;;3.40;;
4837;SDS011;2433;48.768;9.154;2022-10-31T00:16:27;5.10;;;3.80;;
4837;SDS011;2433;48.768;9.154;2022-10-31T00:18:58;7.57;;;4.33;;
4837;SDS011;2433;48.768;9.154;2022-10-31T00:21:25;8.47;;;4.13;;
4837;SDS011;2433;48.768;9.154;2022-10-31T00:23:51;8.87;;;4.90;;
4837;SDS011;2433;48.768;9.154;2022-10-31T00:26:17;6.07;;;3.10;;
4837;SDS011;2433;48.768;9.154;2022-10-31T00:28:43;8.47;;;3.80;;
4837;SDS011;2433;48.768;9.154;2022-10-31T00:31:09;5.40;;;3.30;;
4837;SDS011;2433;48.768;9.154;2022-10-31T00:33:37;4.93;;;3.20;;
4837;SDS011;2433;48.768;9.154;2022-10-31T00:36:03;4.90;;;3.10;;
4837;SDS011;2433;48.768;9.154;2022-10-31T00:38:30;3.30;;;2.93;;
4837;SDS011;2433;48.768;9.154;2022-10-31T00:40:55;7.90;;;3.57;;
4837;SDS011;2433;48.768;9.154;2022-10-31T00:43:21;8.20;;;3.63;;
4837;SDS011;2433;48.768;9.154;2022-10-31T00:45:47;5.13;;;3.30;;
4837;SDS011;2433;48.768;9.154;2022-10-31T00:48:12;6.27;;;3.37;;
4837;SDS011;2433;48.768;9.154;2022-10-31T00:50:38;4.53;;;4.00;;
4837;SDS011;2433;48.768;9.154;2022-10-31T00:53:04;9.27;;;4.40;;
4837;SDS011;2433;48.768;9.154;2022-10-31T00:55:29;5.57;;;3.37;;
4837;SDS011;2433;48.768;9.154;2022-10-31T00:57:55;6.23;;;4.50;;
4837;SDS011;2433;48.768;9.154;2022-10-31T01:00:20;5.90;;;3.63;;
4837;SDS011;2433;48.768;9.154;2022-10-31T01:02:46;6.23;;;3.70;;
4837;SDS011;2433;48.768;9.154;2022-10-31T01:05:12;7.50;;;4.00;;
4837;SDS011;2433;48.768;9.154;2022-10-31T01:07:39;6.70;;;4.20;;
4837;SDS011;2433;48.768;9.154;2022-10-31T01:10:08;6.50;;;3.97;;
4837;SDS011;2433;48.768;9.154;2022-10-31T01:12:37;6.37;;;4.70;;
4837;SDS011;2433;48.768;9.154;2022-10-31T01:15:04;8.87;;;4.30;;
4837;SDS011;2433;48.768;9.154;2022-10-31T01:17:30;6.40;;;3.67;;
4837;SDS011;2433;48.768;9.154;2022-10-31T01:19:59;7.30;;;4.77;;
4837;SDS011;2433;48.768;9.154;2022-10-31T01:22:26;7.43;;;3.70;;
4837;SDS011;2433;48.768;9.154;2022-10-31T01:24:52;9.50;;;4.40;;
4837;SDS011;2433;48.768;9.154;2022-10-31T01:27:18;4.73;;;3.50;;
4837;SDS011;2433;48.768;9.154;2022-10-31T01:29:45;6.63;;;3.57;;
4837;SDS011;2433;48.768;9.154;2022-10-31T01:32:10;7.30;;;4.43;;
4837;SDS011;2433;48.768;9.154;2022-10-31T01:34:36;8.23;;;4.40;;
4837;SDS011;2433;48.768;9.154;2022-10-31T01:37:02;4.70;;;3.63;;
4837;SDS011;2433;48.768;9.154;2022-10-31T01:39:27;7.20;;;4.20;;
4837;SDS011;2433;48.768;9.154;2022-10-31T01:41:53;6.40;;;4.57;;
4837;SDS011;2433;48.768;9.154;2022-10-31T01:47:01;7.00;;;4.50;;
4837;SDS011;2433;48.768;9.154;2022-10-31T01:49:31;7.73;;;4.60;;
4837;SDS011;2433;48.768;9.154;2022-10-31T01:52:14;5.27;;;3.33;;
4837;SDS011;2433;48.768;9.154;2022-10-31T01:54:48;5.27;;;3.70;;
4837;SDS011;2433;48.768;9.154;2022-10-31T01:57:16;6.30;;;4.20;;
4837;SDS011;2433;48.768;9.154;2022-10-31T01:59:44;7.30;;;4.37;;
4837;SDS011;2433;48.768;9.154;2022-10-31T02:02:13;8.03;;;4.90;;
4837;SDS011;2433;48.768;9.154;2022-10-31T02:04:39;7.17;;;4.60;;
4837;SDS011;2433;48.768;9.154;2022-10-31T02:07:07;4.20;;;3.80;;
4837;SDS011;2433;48.768;9.154;2022-10-31T02:09:36;4.87;;;3.67;;
4837;SDS011;2433;48.768;9.154;2022-10-31T02:12:02;5.53;;;3.47;;
4837;SDS011;2433;48.768;9.154;2022-10-31T02:14:29;4.90;;;3.73;;
4837;SDS011;2433;48.768;9.154;2022-10-31T02:16:55;7.40;;;4.40;;
4837;SDS011;2433;48.768;9.154;2022-10-31T02:19:30;6.50;;;4.37;;
4837;SDS011;2433;48.768;9.154;2022-10-31T02:23:06;8.40;;;4.53;;
4837;SDS011;2433;48.768;9.154;2022-10-31T02:30:39;10.63;;;4.90;;
4837;SDS011;2433;48.768;9.154;2022-10-31T02:35:51;6.77;;;4.83;;
4837;SDS011;2433;48.768;9.154;2022-10-31T02:41:18;4.53;;;4.17;;
4837;SDS011;2433;48.768;9.154;2022-10-31T02:49:28;4.43;;;3.83;;
4837;SDS011;2433;48.768;9.154;2022-10-31T02:51:58;7.43;;;5.00;;
4837;SDS011;2433;48.768;9.154;2022-10-31T02:54:24;6.07;;;3.80;;
4837;SDS011;2433;48.768;9.154;2022-10-31T02:56:54;6.50;;;4.60;;
4837;SDS011;2433;48.768;9.154;2022-10-31T02:59:24;7.60;;;4.30;;
4837;SDS011;2433;48.768;9.154;2022-10-31T03:02:03;6.90;;;4.00;;
4837;SDS011;2433;48.768;9.154;2022-10-31T03:04:55;7.20;;;4.97;;
4837;SDS011;2433;48.768;9.154;2022-10-31T03:10:45;6.47;;;4.33;;
4837;SDS011;2433;48.768;9.154;2022-10-31T03:16:01;6.20;;;3.83;;
4837;SDS011;2433;48.768;9.154;2022-10-31T03:18:52;10.93;;;4.50;;
4837;SDS011;2433;48.768;9.154;2022-10-31T03:21:32;4.50;;;3.93;;
4837;SDS011;2433;48.768;9.154;2022-10-31T03:24:01;5.80;;;3.83;;
4837;SDS011;2433;48.768;9.154;2022-10-31T03:26:29;8.80;;;3.80;;
4837;SDS011;2433;48.768;9.154;2022-10-31T03:29:02;5.53;;;3.60;;
4837;SDS011;2433;48.768;9.154;2022-10-31T03:31:49;4.67;;;3.60;;
4837;SDS011;2433;48.768;9.154;2022-10-31T03:34:20;6.83;;;3.83;;
4837;SDS011;2433;48.768;9.154;2022-10-31T03:36:48;5.93;;;4.00;;
4837;SDS011;2433;48.768;9.154;2022-10-31T03:39:16;7.30;;;4.03;;
4837;SDS011;2433;48.768;9.154;2022-10-31T03:41:46;4.37;;;3.13;;
4837;SDS011;2433;48.768;9.154;2022-10-31T03:44:16;4.87;;;3.90;;
4837;SDS011;2433;48.768;9.154;2022-10-31T03:46:46;5.83;;;4.60;;
4837;SDS011;2433;48.768;9.154;2022-10-31T03:49:11;4.13;;;3.27;;
4837;SDS011;2433;48.768;9.154;2022-10-31T03:54:37;5.40;;;3.70;;
4837;SDS011;2433;48.768;9.154;2022-10-31T03:57:09;6.30;;;3.90;;
4837;SDS011;2433;48.768;9.154;2022-10-31T04:00:05;6.17;;;4.57;;
4837;SDS011;2433;48.768;9.154;2022-10-31T04:03:30;5.00;;;3.70;;
4837;SDS011;2433;48.768;9.154;2022-10-31T04:05:32;6.73;;;4.20;;
4837;SDS011;2433;48.768;9.154;2022-10-31T04:08:00;10.93;;;4.13;;
4837;SDS011;2433;48.768;9.154;2022-10-31T04:10:27;7.73;;;4.10;;
4837;SDS011;2433;48.768;9.154;2022-10-31T04:12:58;5.70;;;4.40;;
4837;SDS011;2433;48.768;9.154;2022-10-31T04:15:32;4.00;;;3.43;;
4837;SDS011;2433;48.768;9.154;2022-10-31T04:17:58;5.10;;;3.30;;
4837;SDS011;2433;48.768;9.154;2022-10-31T04:20:30;7.90;;;3.80;;
4837;SDS011;2433;48.768;9.154;2022-10-31T04:22:56;4.37;;;3.67;;
4837;SDS011;2433;48.768;9.154;2022-10-31T04:25:22;6.20;;;4.37;;
4837;SDS011;2433;48.768;9.154;2022-10-31T04:27:48;6.83;;;4.00;;
4837;SDS011;2433;48.768;9.154;2022-10-31T04:30:13;7.73;;;3.50;;
4837;SDS011;2433;48.768;9.154;2022-10-31T04:32:39;6.03;;;4.67;;
4837;SDS011;2433;48.768;9.154;2022-10-31T04:35:05;5.20;;;4.50;;
4837;SDS011;2433;48.768;9.154;2022-10-31T04:37:32;4.30;;;3.90;;
4837;SDS011;2433;48.768;9.154;2022-10-31T04:39:58;8.10;;;5.07;;
4837;SDS011;2433;48.768;9.154;2022-10-31T04:42:38;5.40;;;4.63;;
4837;SDS011;2433;48.768;9.154;2022-10-31T04:45:05;5.63;;;4.70;;
4837;SDS011;2433;48.768;9.154;2022-10-31T04:47:32;5.50;;;4.00;;
4837;SDS011;2433;48.768;9.154;2022-10-31T04:49:59;7.20;;;4.27;;
4837;SDS011;2433;48.768;9.154;2022-10-31T04:52:25;4.17;;;3.63;;
4837;SDS011;2433;48.768;9.154;2022-10-31T04:54:51;6.37;;;4.67;;
4837;SDS011;2433;48.768;9.154;2022-10-31T04:57:49;7.80;;;4.10;;
4837;SDS011;2433;48.768;9.154;2022-10-31T05:00:17;8.63;;;4.73;;
4837;SDS011;2433;48.768;9.154;2022-10-31T05:02:48;5.27;;;4.13;;
4837;SDS011;2433;48.768;9.154;2022-10-31T05:05:16;6.60;;;4.50;;
4837;SDS011;2433;48.768;9.154;2022-10-31T05:07:43;12.73;;;5.10;;
4837;SDS011;2433;48.768;9.154;2022-10-31T05:10:12;7.60;;;6.00;;
4837;SDS011;2433;48.768;9.154;2022-10-31T05:12:46;7.83;;;4.00;;
4837;SDS011;2433;48.768;9.154;2022-10-31T05:15:31;7.33;;;4.57;;
4837;SDS011;2433;48.768;9.154;2022-10-31T05:18:29;5.80;;;4.60;;
4837;SDS011;2433;48.768;9.154;2022-10-31T05:21:13;6.93;;;4.40;;
4837;SDS011;2433;48.768;9.154;2022-10-31T05:23:50;3.87;;;3.43;;
4837;SDS011;2433;48.768;9.154;2022-10-31T05:26:16;5.43;;;4.30;;
4837;SDS011;2433;48.768;9.154;2022-10-31T05:28:41;7.87;;;4.77;;
4837;SDS011;2433;48.768;9.154;2022-10-31T05:31:07;8.07;;;4.63;;
4837;SDS011;2433;48.768;9.154;2022-10-31T05:33:32;7.00;;;5.80;;
4837;SDS011;2433;48.768;9.154;2022-10-31T05:36:16;6.93;;;4.00;;
4837;SDS011;2433;48.768;9.154;2022-10-31T05:38:52;8.10;;;4.67;;
4837;SDS011;2433;48.768;9.154;2022-10-31T05:41:33;6.30;;;4.20;;
4837;SDS011;2433;48.768;9.154;2022-10-31T05:44:03;7.03;;;4.67;;
4837;SDS011;2433;48.768;9.154;2022-10-31T05:46:33;6.17;;;4.23;;
4837;SDS011;2433;48.768;9.154;2022-10-31T05:49:17;7.60;;;5.30;;
4837;SDS011;2433;48.768;9.154;2022-10-31T05:52:21;8.23;;;4.57;;
4837;SDS011;2433;48.768;9.154;2022-10-31T05:54:54;6.93;;;4.50;;
4837;SDS011;2433;48.768;9.154;2022-10-31T05:57:20;5.37;;;4.70;;
4837;SDS011;2433;48.768;9.154;2022-10-31T05:59:45;7.90;;;4.83;;
4837;SDS011;2433;48.768;9.154;2022-10-31T06:02:11;6.73;;;4.40;;
4837;SDS011;2433;48.768;9.154;2022-10-31T06:04:55;5.80;;;4.40;;
4837;SDS011;2433;48.768;9.154;2022-10-31T06:07:21;7.47;;;4.20;;
4837;SDS011;2433;48.768;9.154;2022-10-31T06:09:47;8.10;;;4.20;;
4837;SDS011;2433;48.768;9.154;2022-10-31T06:12:12;7.83;;;4.30;;
4837;SDS011;2433;48.768;9.154;2022-10-31T06:15:10;7.63;;;4.60;;
4837;SDS011;2433;48.768;9.154;2022-10-31T06:17:35;9.20;;;5.03;;
4837;SDS011;2433;48.768;9.154;2022-10-31T06:20:20;5.40;;;3.93;;
4837;SDS011;2433;48.768;9.154;2022-10-31T06:22:54;7.07;;;4.57;;
4837;SDS011;2433;48.768;9.154;2022-10-31T06:25:20;5.50;;;5.00;;
4837;SDS011;2433;48.768;9.154;2022-10-31T06:27:48;9.67;;;4.70;;
4837;SDS011;2433;48.768;9.154;2022-10-31T06:30:14;11.60;;;4.63;;
4837;SDS011;2433;48.768;9.154;2022-10-31T06:32:39;6.40;;;4.00;;
4837;SDS011;2433;48.768;9.154;2022-10-31T06:35:05;5.30;;;4.63;;
4837;SDS011;2433;48.768;9.154;2022-10-31T06:37:33;6.97;;;3.57;;
4837;SDS011;2433;48.768;9.154;2022-10-31T06:40:06;7.33;;;4.83;;
4837;SDS011;2433;48.768;9.154;2022-10-31T06:42:47;5.77;;;4.40;;
4837;SDS011;2433;48.768;9.154;2022-10-31T06:45:13;5.53;;;4.20;;
4837;SDS011;2433;48.768;9.154;2022-10-31T06:48:12;5.00;;;3.63;;
4837;SDS011;2433;48.768;9.154;2022-10-31T06:50:51;5.33;;;4.20;;
4837;SDS011;2433;48.768;9.154;2022-10-31T06:53:16;5.43;;;3.90;;
4837;SDS011;2433;48.768;9.154;2022-10-31T06:55:42;6.20;;;4.70;;
4837;SDS011;2433;48.768;9.154;2022-10-31T06:58:08;9.63;;;5.00;;
4837;SDS011;2433;48.768;9.154;2022-10-31T07:00:34;5.43;;;4.70;;
4837;SDS011;2433;48.768;9.154;2022-10-31T07:03:08;8.80;;;5.10;;
4837;SDS011;2433;48.768;9.154;2022-10-31T07:05:36;8.87;;;6.30;;
4837;SDS011;2433;48.768;9.154;2022-10-31T07:08:05;9.43;;;5.30;;
4837;SDS011;2433;48.768;9.154;2022-10-31T07:10:32;7.27;;;4.70;;
4837;SDS011;2433;48.768;9.154;2022-10-31T07:13:02;9.43;;;4.70;;
4837;SDS011;2433;48.768;9.154;2022-10-31T07:15:34;7.57;;;5.50;;
4837;SDS011;2433;48.768;9.154;2022-10-31T07:18:02;6.70;;;4.47;;
4837;SDS011;2433;48.768;9.154;2022-10-31T07:20:30;6.23;;;5.00;;
4837;SDS011;2433;48.768;9.154;2022-10-31T07:22:56;7.27;;;5.47;;
4837;SDS011;2433;48.768;9.154;2022-10-31T07:25:23;6.87;;;4.90;;
4837;SDS011;2433;48.768;9.154;2022-10-31T07:27:57;7.50;;;5.60;;
4837;SDS011;2433;48.768;9.154;2022-10-31T07:30:23;10.03;;;5.57;;
4837;SDS011;2433;48.768;9.154;2022-10-31T07:32:52;6.77;;;5.30;;
4837;SDS011;2433;48.768;9.154;2022-10-31T07:35:21;10.97;;;5.40;;
4837;SDS011;2433;48.768;9.154;2022-10-31T07:37:53;6.53;;;5.20;;
4837;SDS011;2433;48.768;9.154;2022-10-31T07:40:20;7.40;;;4.93;;
4837;SDS011;2433;48.768;9.154;2022-10-31T07:42:48;25.77;;;18.37;;
4837;SDS011;2433;48.768;9.154;2022-10-31T07:45:34;8.03;;;5.90;;
4837;SDS011;2433;48.768;9.154;2022-10-31T07:48:32;7.80;;;5.50;;
4837;SDS011;2433;48.768;9.154;2022-10-31T07:51:16;8.40;;;5.80;;
4837;SDS011;2433;48.768;9.154;2022-10-31T07:54:07;6.87;;;6.10;;
4837;SDS011;2433;48.768;9.154;2022-10-31T07:56:32;11.00;;;7.90;;
4837;SDS011;2433;48.768;9.154;2022-10-31T07:58:58;6.13;;;5.27;;
4837;SDS011;2433;48.768;9.154;2022-10-31T08:01:24;7.90;;;5.20;;
4837;SDS011;2433;48.768;9.154;2022-10-31T08:04:09;8.97;;;5.33;;
4837;SDS011;2433;48.768;9.154;2022-10-31T08:07:07;12.30;;;5.87;;
4837;SDS011;2433;48.768;9.154;2022-10-31T08:09:35;7.70;;;6.90;;
4837;SDS011;2433;48.768;9.154;2022-10-31T08:12:06;10.67;;;5.50;;
4837;SDS011;2433;48.768;9.154;2022-10-31T08:14:34;8.37;;;6.17;;
4837;SDS011;2433;48.768;9.154;2022-10-31T08:17:00;11.17;;;6.43;;
4837;SDS011;2433;48.768;9.154;2022-10-31T08:19:33;8.33;;;5.93;;
4837;SDS011;2433;48.768;9.154;2022-10-31T08:21:59;10.93;;;6.03;;
4837;SDS011;2433;48.768;9.154;2022-10-31T08:24:25;8.90;;;6.10;;
4837;SDS011;2433;48.768;9.154;2022-10-31T08:26:52;8.10;;;6.73;;
4837;SDS011;2433;48.768;9.154;2022-10-31T08:29:18;7.90;;;5.73;;
4837;SDS011;2433;48.768;9.154;2022-10-31T08:31:45;12.37;;;6.40;;
4837;SDS011;2433;48.768;9.154;2022-10-31T08:34:29;10.93;;;5.93;;
4837;SDS011;2433;48.768;9.154;2022-10-31T08:37:13;9.80;;;5.77;;
4837;SDS011;2433;48.768;9.154;2022-10-31T08:39:46;8.07;;;5.80;;
4837;SDS011;2433;48.768;9.154;2022-10-31T08:42:12;7.43;;;6.23;;
4837;SDS011;2433;48.768;9.154;2022-10-31T08:44:38;8.00;;;6.67;;
4837;SDS011;2433;48.768;9.154;2022-10-31T08:47:03;10.40;;;5.93;;
4837;SDS011;2433;48.768;9.154;2022-10-31T08:49:31;10.23;;;6.20;;
4837;SDS011;2433;48.768;9.154;2022-10-31T08:51:57;7.90;;;6.03;;
4837;SDS011;2433;48.768;9.154;2022-10-31T08:54:27;9.30;;;6.47;;
4837;SDS011;2433;48.768;9.154;2022-10-31T08:56:55;10.13;;;7.20;;
4837;SDS011;2433;48.768;9.154;2022-10-31T08:59:37;11.03;;;6.53;;
4837;SDS011;2433;48.768;9.154;2022-10-31T09:02:31;9.67;;;6.33;;
4837;SDS011;2433;48.768;9.154;2022-10-31T09:04:59;9.77;;;6.53;;
4837;SDS011;2433;48.768;9.154;2022-10-31T09:07:24;7.40;;;6.27;;
4837;SDS011;2433;48.768;9.154;2022-10-31T09:09:51;8.00;;;5.90;;
4837;SDS011;2433;48.768;9.154;2022-10-31T09:12:18;9.40;;;7.20;;
4837;SDS011;2433;48.768;9.154;2022-10-31T09:15:10;8.53;;;6.10;;
4837;SDS011;2433;48.768;9.154;2022-10-31T09:17:58;8.97;;;6.40;;
4837;SDS011;2433;48.768;9.154;2022-10-31T09:20:30;12.10;;;6.80;;
4837;SDS011;2433;48.768;9.154;2022-10-31T09:22:57;9.40;;;6.50;;
4837;SDS011;2433;48.768;9.154;2022-10-31T09:25:24;11.07;;;6.80;;
4837;SDS011;2433;48.768;9.154;2022-10-31T09:28:03;9.07;;;6.57;;
4837;SDS011;2433;48.768;9.154;2022-10-31T09:30:30;8.17;;;6.63;;
4837;SDS011;2433;48.768;9.154;2022-10-31T09:33:02;10.73;;;7.80;;
4837;SDS011;2433;48.768;9.154;2022-10-31T09:35:29;11.03;;;6.00;;
4837;SDS011;2433;48.768;9.154;2022-10-31T09:38:00;9.43;;;7.40;;
4837;SDS011;2433;48.768;9.154;2022-10-31T09:40:33;15.30;;;6.87;;
4837;SDS011;2433;48.768;9.154;2022-10-31T09:46:00;7.87;;;6.40;;
4837;SDS011;2433;48.768;9.154;2022-10-31T09:48:47;10.57;;;6.70;;
4837;SDS011;2433;48.768;9.154;2022-10-31T09:54:18;12.43;;;7.13;;
4837;SDS011;2433;48.768;9.154;2022-10-31T09:56:46;10.43;;;7.40;;
4837;SDS011;2433;48.768;9.154;2022-10-31T09:59:18;10.53;;;7.33;;
4837;SDS011;2433;48.768;9.154;2022-10-31T10:02:05;8.00;;;6.97;;
4837;SDS011;2433;48.768;9.154;2022-10-31T10:04:40;9.20;;;7.00;;
4837;SDS011;2433;48.768;9.154;2022-10-31T10:07:37;8.50;;;7.10;;
4837;SDS011;2433;48.768;9.154;2022-10-31T10:10:56;14.07;;;7.97;;
4837;SDS011;2433;48.768;9.154;2022-10-31T10:19:05;9.20;;;6.80;;
4837;SDS011;2433;48.768;9.154;2022-10-31T10:21:38;7.50;;;6.50;;
4837;SDS011;2433;48.768;9.154;2022-10-31T10:27:05;11.00;;;7.37;;
4837;SDS011;2433;48.768;9.154;2022-10-31T10:29:47;8.10;;;7.30;;
4837;SDS011;2433;48.768;9.154;2022-10-31T10:32:21;8.63;;;7.13;;
4837;SDS011;2433;48.768;9.154;2022-10-31T10:34:50;11.17;;;6.90;;
4837;SDS011;2433;48.768;9.154;2022-10-31T10:40:01;10.40;;;7.23;;
4837;SDS011;2433;48.768;9.154;2022-10-31T10:42:38;15.33;;;8.47;;
4837;SDS011;2433;48.768;9.154;2022-10-31T10:45:22;11.07;;;6.60;;
4837;SDS011;2433;48.768;9.154;2022-10-31T10:48:14;11.17;;;6.90;;
4837;SDS011;2433;48.768;9.154;2022-10-31T10:50:52;9.80;;;7.37;;
4837;SDS011;2433;48.768;9.154;2022-10-31T10:53:21;11.13;;;7.27;;
4837;SDS011;2433;48.768;9.154;2022-10-31T10:56:08;12.53;;;9.60;;
4837;SDS011;2433;48.768;9.154;2022-10-31T10:58:40;7.23;;;6.50;;
4837;SDS011;2433;48.768;9.154;2022-10-31T11:01:14;10.10;;;7.23;;
4837;SDS011;2433;48.768;9.154;2022-10-31T11:03:40;11.23;;;6.80;;
4837;SDS011;2433;48.768;9.154;2022-10-31T11:06:16;10.13;;;6.60;;
4837;SDS011;2433;48.768;9.154;2022-10-31T11:08:51;13.87;;;7.50;;
4837;SDS011;2433;48.768;9.154;2022-10-31T11:13:44;9.53;;;7.10;;
4837;SDS011;2433;48.768;9.154;2022-10-31T11:16:12;11.57;;;6.20;;
4837;SDS011;2433;48.768;9.154;2022-10-31T11:18:43;7.60;;;6.07;;
4837;SDS011;2433;48.768;9.154;2022-10-31T11:21:19;7.70;;;6.57;;
4837;SDS011;2433;48.768;9.154;2022-10-31T11:24:02;10.87;;;6.77;;
4837;SDS011;2433;48.768;9.154;2022-10-31T11:26:48;9.93;;;6.27;;
4837;SDS011;2433;48.768;9.154;2022-10-31T11:29:22;7.53;;;6.40;;
4837;SDS011;2433;48.768;9.154;2022-10-31T11:31:51;10.40;;;8.13;;
4837;SDS011;2433;48.768;9.154;2022-10-31T11:34:23;9.40;;;6.93;;
4837;SDS011;2433;48.768;9.154;2022-10-31T11:36:53;12.97;;;7.00;;
4837;SDS011;2433;48.768;9.154;2022-10-31T11:39:22;8.37;;;6.23;;
4837;SDS011;2433;48.768;9.154;2022-10-31T11:41:49;7.90;;;6.97;;
4837;SDS011;2433;48.768;9.154;2022-10-31T11:44:28;9.47;;;6.50;;
4837;SDS011;2433;48.768;9.154;2022-10-31T11:47:02;7.77;;;6.87;;
4837;SDS011;2433;48.768;9.154;2022-10-31T11:49:41;12.70;;;7.10;;
4837;SDS011;2433;48.768;9.154;2022-10-31T11:52:25;9.63;;;5.50;;
4837;SDS011;2433;48.768;9.154;2022-10-31T11:57:43;8.73;;;6.87;;
4837;SDS011;2433;48.768;9.154;2022-10-31T12:00:29;8.80;;;6.33;;
4837;SDS011;2433;48.768;9.154;2022-10-31T12:03:24;9.80;;;7.20;;
4837;SDS011;2433;48.768;9.154;2022-10-31T12:08:42;7.03;;;6.33;;
4837;SDS011;2433;48.768;9.154;2022-10-31T12:13:47;9.07;;;7.00;;
4837;SDS011;2433;48.768;9.154;2022-10-31T12:17:08;9.63;;;6.60;;
4837;SDS011;2433;48.768;9.154;2022-10-31T12:22:13;11.07;;;6.60;;
4837;SDS011;2433;48.768;9.154;2022-10-31T12:25:00;9.97;;;7.50;;
4837;SDS011;2433;48.768;9.154;2022-10-31T12:27:42;9.47;;;6.33;;
4837;SDS011;2433;48.768;9.154;2022-10-31T12:30:27;10.10;;;7.03;;
4837;SDS011;2433;48.768;9.154;2022-10-31T12:35:40;10.43;;;7.10;;
4837;SDS011;2433;48.768;9.154;2022-10-31T12:38:30;11.27;;;6.60;;
4837;SDS011;2433;48.768;9.154;2022-10-31T12:41:14;11.33;;;6.87;;
4837;SDS011;2433;48.768;9.154;2022-10-31T13:00:20;8.70;;;6.67;;
4837;SDS011;2433;48.768;9.154;2022-10-31T13:02:54;10.00;;;8.87;;
4837;SDS011;2433;48.768;9.154;2022-10-31T13:05:39;12.07;;;8.17;;
4837;SDS011;2433;48.768;9.154;2022-10-31T13:08:10;10.00;;;9.00;;
4837;SDS011;2433;48.768;9.154;2022-10-31T13:10:43;15.83;;;8.17;;
4837;SDS011;2433;48.768;9.154;2022-10-31T13:13:14;11.63;;;7.90;;
4837;SDS011;2433;48.768;9.154;2022-10-31T13:15:46;11.23;;;7.10;;
4837;SDS011;2433;48.768;9.154;2022-10-31T13:18:42;7.80;;;6.67;;
4837;SDS011;2433;48.768;9.154;2022-10-31T13:21:22;10.77;;;8.80;;
4837;SDS011;2433;48.768;9.154;2022-10-31T13:23:50;14.50;;;7.83;;
4837;SDS011;2433;48.768;9.154;2022-10-31T13:29:29;15.70;;;9.93;;
4837;SDS011;2433;48.768;9.154;2022-10-31T13:31:59;13.50;;;8.10;;
4837;SDS011;2433;48.768;9.154;2022-10-31T13:34:27;9.13;;;7.27;;
4837;SDS011;2433;48.768;9.154;2022-10-31T13:37:05;11.77;;;7.57;;
4837;SDS011;2433;48.768;9.154;2022-10-31T13:42:22;11.47;;;6.87;;
4837;SDS011;2433;48.768;9.154;2022-10-31T13:45:20;9.77;;;7.70;;
4837;SDS011;2433;48.768;9.154;2022-10-31T13:47:59;11.57;;;8.07;;
4837;SDS011;2433;48.768;9.154;2022-10-31T13:50:30;9.00;;;6.87;;
4837;SDS011;2433;48.768;9.154;2022-10-31T13:58:33;11.73;;;7.63;;
4837;SDS011;2433;48.768;9.154;2022-10-31T14:03:47;8.33;;;7.50;;
4837;SDS011;2433;48.768;9.154;2022-10-31T14:06:22;10.43;;;8.30;;
4837;SDS011;2433;48.768;9.154;2022-10-31T14:08:49;19.00;;;9.50;;
4837;SDS011;2433;48.768;9.154;2022-10-31T14:11:24;6.20;;;5.60;;
4837;SDS011;2433;48.768;9.154;2022-10-31T14:13:52;8.83;;;6.97;;
4837;SDS011;2433;48.768;9.154;2022-10-31T14:16:42;14.83;;;8.87;;
4837;SDS011;2433;48.768;9.154;2022-10-31T14:19:13;8.80;;;7.27;;
4837;SDS011;2433;48.768;9.154;2022-10-31T14:21:42;8.90;;;7.40;;
4837;SDS011;2433;48.768;9.154;2022-10-31T14:29:21;14.77;;;7.70;;
4837;SDS011;2433;48.768;9.154;2022-10-31T14:31:55;12.10;;;7.50;;
4837;SDS011;2433;48.768;9.154;2022-10-31T14:34:27;9.97;;;7.57;;
4837;SDS011;2433;48.768;9.154;2022-10-31T14:40:04;9.60;;;6.77;;
4837;SDS011;2433;48.768;9.154;2022-10-31T14:50:49;9.60;;;7.33;;
4837;SDS011;2433;48.768;9.154;2022-10-31T14:55:52;8.80;;;7.23;;
4837;SDS011;2433;48.768;9.154;2022-10-31T14:58:21;9.73;;;7.00;;
4837;SDS011;2433;48.768;9.154;2022-10-31T15:00:50;8.60;;;7.00;;
4837;SDS011;2433;48.768;9.154;2022-10-31T15:03:31;7.57;;;6.80;;
4837;SDS011;2433;48.768;9.154;2022-10-31T15:06:05;11.60;;;6.80;;
4837;SDS011;2433;48.768;9.154;2022-10-31T15:08:40;8.73;;;7.27;;
4837;SDS011;2433;48.768;9.154;2022-10-31T15:11:43;10.03;;;7.10;;
4837;SDS011;2433;48.768;9.154;2022-10-31T15:14:01;9.47;;;7.30;;
4837;SDS011;2433;48.768;9.154;2022-10-31T15:16:35;13.07;;;6.70;;
4837;SDS011;2433;48.768;9.154;2022-10-31T15:19:05;12.27;;;6.80;;
4837;SDS011;2433;48.768;9.154;2022-10-31T15:21:32;9.40;;;6.90;;
4837;SDS011;2433;48.768;9.154;2022-10-31T15:23:59;14.93;;;7.93;;
4837;SDS011;2433;48.768;9.154;2022-10-31T15:26:27;9.30;;;6.43;;
4837;SDS011;2433;48.768;9.154;2022-10-31T15:31:39;10.77;;;7.10;;
4837;SDS011;2433;48.768;9.154;2022-10-31T15:34:16;9.30;;;7.03;;
4837;SDS011;2433;48.768;9.154;2022-10-31T15:36:49;12.27;;;7.30;;
4837;SDS011;2433;48.768;9.154;2022-10-31T15:39:15;12.53;;;6.83;;
4837;SDS011;2433;48.768;9.154;2022-10-31T15:47:20;14.27;;;7.10;;
4837;SDS011;2433;48.768;9.154;2022-10-31T15:49:41;9.47;;;7.13;;
4837;SDS011;2433;48.768;9.154;2022-10-31T15:52:16;13.53;;;9.40;;
4837;SDS011;2433;48.768;9.154;2022-10-31T15:55:03;9.13;;;7.40;;
4837;SDS011;2433;48.768;9.154;2022-10-31T15:57:31;11.63;;;7.27;;
4837;SDS011;2433;48.768;9.154;2022-10-31T15:59:57;11.90;;;8.17;;
4837;SDS011;2433;48.768;9.154;2022-10-31T16:02:24;9.50;;;6.70;;
4837;SDS011;2433;48.768;9.154;2022-10-31T16:04:53;10.50;;;6.90;;
4837;SDS011;2433;48.768;9.154;2022-10-31T16:07:20;10.47;;;7.13;;
4837;SDS011;2433;48.768;9.154;2022-10-31T16:09:53;14.17;;;7.73;;
4837;SDS011;2433;48.768;9.154;2022-10-31T16:12:21;11.80;;;5.90;;
4837;SDS011;2433;48.768;9.154;2022-10-31T16:14:48;13.37;;;7.67;;
4837;SDS011;2433;48.768;9.154;2022-10-31T16:17:15;9.60;;;7.10;;
4837;SDS011;2433;48.768;9.154;2022-10-31T16:19:49;13.20;;;8.00;;
4837;SDS011;2433;48.768;9.154;2022-10-31T16:22:27;13.73;;;8.07;;
4837;SDS011;2433;48.768;9.154;2022-10-31T16:25:11;13.30;;;9.00;;
4837;SDS011;2433;48.768;9.154;2022-10-31T16:27:39;13.13;;;8.00;;
4837;SDS011;2433;48.768;9.154;2022-10-31T16:33:00;19.67;;;7.47;;
4837;SDS011;2433;48.768;9.154;2022-10-31T16:35:27;10.87;;;7.60;;
4837;SDS011;2433;48.768;9.154;2022-10-31T16:37:57;9.57;;;6.83;;
4837;SDS011;2433;48.768;9.154;2022-10-31T16:40:23;9.90;;;6.30;;
4837;SDS011;2433;48.768;9.154;2022-10-31T16:42:49;11.83;;;8.03;;
4837;SDS011;2433;48.768;9.154;2022-10-31T16:45:15;10.97;;;8.07;;
4837;SDS011;2433;48.768;9.154;2022-10-31T16:47:43;10.67;;;7.30;;
4837;SDS011;2433;48.768;9.154;2022-10-31T16:50:17;15.70;;;8.73;;
4837;SDS011;2433;48.768;9.154;2022-10-31T16:52:46;10.40;;;7.50;;
4837;SDS011;2433;48.768;9.154;2022-10-31T16:55:16;16.40;;;9.57;;
4837;SDS011;2433;48.768;9.154;2022-10-31T16:57:50;12.77;;;9.13;;
4837;SDS011;2433;48.768;9.154;2022-10-31T17:00:20;11.73;;;8.40;;
4837;SDS011;2433;48.768;9.154;2022-10-31T17:02:48;12.50;;;8.40;;
4837;SDS011;2433;48.768;9.154;2022-10-31T17:05:16;14.40;;;8.90;;
4837;SDS011;2433;48.768;9.154;2022-10-31T17:07:42;13.67;;;10.10;;
4837;SDS011;2433;48.768;9.154;2022-10-31T17:10:08;16.27;;;8.50;;
4837;SDS011;2433;48.768;9.154;2022-10-31T17:12:35;12.73;;;9.20;;
4837;SDS011;2433;48.768;9.154;2022-10-31T17:15:01;14.87;;;10.00;;
4837;SDS011;2433;48.768;9.154;2022-10-31T17:17:27;18.80;;;9.90;;
4837;SDS011;2433;48.768;9.154;2022-10-31T17:19:53;9.07;;;7.60;;
4837;SDS011;2433;48.768;9.154;2022-10-31T17:22:18;12.10;;;7.80;;
4837;SDS011;2433;48.768;9.154;2022-10-31T17:24:44;11.57;;;8.10;;
4837;SDS011;2433;48.768;9.154;2022-10-31T17:27:10;13.20;;;8.50;;
4837;SDS011;2433;48.768;9.154;2022-10-31T17:29:35;12.20;;;8.87;;
4837;SDS011;2433;48.768;9.154;2022-10-31T17:32:01;10.47;;;7.97;;
4837;SDS011;2433;48.768;9.154;2022-10-31T17:34:28;14.67;;;9.77;;
4837;SDS011;2433;48.768;9.154;2022-10-31T17:36:54;13.90;;;10.27;;
4837;SDS011;2433;48.768;9.154;2022-10-31T17:39:19;13.07;;;9.00;;
4837;SDS011;2433;48.768;9.154;2022-10-31T17:41:46;12.73;;;8.90;;
4837;SDS011;2433;48.768;9.154;2022-10-31T17:44:14;13.13;;;9.30;;